LEBZ

Badajoz Airport

Badajoz, Spain
METAR LEBZ 201900Z 09003KT 9999 FEW040CB SCT045 33/13 Q1013
Observed Flight Rules
Aug-20 @ 19:00 UTC (5 hours ago) Visual Flight Rules
Wind Visibility Clouds
90° at 3 knots 10,000+ meters
  • Few at 4,000' AGL
  • Scattered at 4,500' AGL
Temperatures Readings
Current 33°C / 91°F
Dewpoint 13°C / 55°F
Humidity 30%
Altimeter 29.91" Hg
Pressure 1013 hPa
Elevation 192
METAR LEBZ 201900Z 09003KT 9999 FEW040CB SCT045 33/13 Q1013
Observed Flight Rules
Aug-20 @ 19:00 UTC
(5 hours ago)
VFR
Wind Visibility
90° at 3 knots 10,000+ meters
Clouds
  • Few at 4,000' AGL
  • Scattered at 4,500' AGL
Temperature Dewpoint
33°C / 91°F 13°C / 55°F
Humidity Altimeter Pressure
30% 29.91" Hg 1013 hPa